createdAt,value
2022-08-30T00:01:03.766Z,15.05
2022-08-30T00:02:06.900Z,15.04
2022-08-30T00:03:14.668Z,15.04
2022-08-30T00:04:17.437Z,14.99
2022-08-30T00:05:20.695Z,15.01
2022-08-30T00:06:24.338Z,15.00
2022-08-30T00:07:27.406Z,15.00
2022-08-30T00:08:29.523Z,15.00
2022-08-30T00:09:32.697Z,14.97
2022-08-30T00:10:34.911Z,14.93
2022-08-30T00:11:37.953Z,14.96
2022-08-30T00:12:40.243Z,14.96
2022-08-30T00:13:45.907Z,14.95
2022-08-30T00:14:48.147Z,14.90
2022-08-30T00:15:51.820Z,14.94
2022-08-30T00:16:53.954Z,14.94
2022-08-30T00:17:57.306Z,14.94
2022-08-30T00:19:02.063Z,14.91
2022-08-30T00:20:07.798Z,14.92
2022-08-30T00:21:10.612Z,14.91
2022-08-30T00:22:13.772Z,14.90
2022-08-30T00:23:17.023Z,14.88
2022-08-30T00:24:20.201Z,14.87
2022-08-30T00:25:23.561Z,14.85
2022-08-30T00:26:26.586Z,14.84
2022-08-30T00:27:28.703Z,14.84
2022-08-30T00:28:33.968Z,14.81
2022-08-30T00:29:36.141Z,14.80
2022-08-30T00:30:39.410Z,14.79
2022-08-30T00:31:41.540Z,14.76
2022-08-30T00:32:44.958Z,14.77
2022-08-30T00:33:47.285Z,14.76
2022-08-30T00:34:53.159Z,14.74
2022-08-30T00:35:55.464Z,14.73
2022-08-30T00:36:59.236Z,14.74
2022-08-30T00:38:01.397Z,14.73
2022-08-30T00:39:05.483Z,14.73
2022-08-30T00:40:12.109Z,14.73
2022-08-30T00:41:15.334Z,14.73
2022-08-30T00:42:18.801Z,14.73
2022-08-30T00:43:25.734Z,14.73
2022-08-30T00:44:30.078Z,14.73
2022-08-30T00:45:35.555Z,14.74
2022-08-30T00:46:37.721Z,14.75
2022-08-30T00:47:40.840Z,14.75
2022-08-30T00:48:49.211Z,14.76
2022-08-30T00:49:56.541Z,14.74
2022-08-30T00:51:04.528Z,14.77
2022-08-30T00:52:07.841Z,14.79
2022-08-30T00:53:15.776Z,14.80
2022-08-30T00:54:19.036Z,14.81
2022-08-30T00:55:23.153Z,14.81
2022-08-30T00:56:26.700Z,14.84
2022-08-30T00:57:31.435Z,14.84
2022-08-30T00:58:38.691Z,14.85
2022-08-30T00:59:44.082Z,14.86
2022-08-30T01:00:46.144Z,14.87
2022-08-30T01:01:49.319Z,14.86
2022-08-30T01:02:52.545Z,14.87
2022-08-30T01:03:55.310Z,14.88
2022-08-30T01:05:00.291Z,14.88
2022-08-30T01:06:03.659Z,14.88
2022-08-30T01:07:08.212Z,14.89
2022-08-30T01:08:10.681Z,14.92
2022-08-30T01:09:15.190Z,14.92
2022-08-30T01:10:18.079Z,14.91
2022-08-30T01:11:24.271Z,14.90
2022-08-30T01:12:26.621Z,14.89
2022-08-30T01:13:29.800Z,14.93
2022-08-30T01:14:33.368Z,14.94
2022-08-30T01:15:38.814Z,14.95
2022-08-30T01:16:43.404Z,14.95
2022-08-30T01:17:48.901Z,14.92
2022-08-30T01:18:52.354Z,14.95
2022-08-30T01:19:58.230Z,14.96
2022-08-30T01:21:10.278Z,14.98
2022-08-30T01:22:22.248Z,14.94
2022-08-30T01:23:28.674Z,14.99
2022-08-30T01:24:31.727Z,14.97
2022-08-30T01:25:37.282Z,15.00
2022-08-30T01:26:39.876Z,15.01
2022-08-30T01:27:46.157Z,15.01
2022-08-30T01:28:52.105Z,15.01
2022-08-30T01:29:56.034Z,14.99
2022-08-30T01:30:58.577Z,14.98
2022-08-30T01:32:01.644Z,15.01
2022-08-30T01:33:04.969Z,15.02
2022-08-30T01:34:09.336Z,14.98
2022-08-30T01:35:13.697Z,15.02
2022-08-30T01:36:17.375Z,15.03
2022-08-30T01:37:25.413Z,15.03
2022-08-30T01:38:34.800Z,15.03
2022-08-30T01:39:36.865Z,15.04
2022-08-30T01:40:40.069Z,15.02
2022-08-30T01:41:43.547Z,15.02
2022-08-30T01:42:47.073Z,15.03
2022-08-30T01:43:50.748Z,15.03
2022-08-30T01:44:53.839Z,15.03
2022-08-30T01:45:55.918Z,15.03
2022-08-30T01:46:58.999Z,15.04
2022-08-30T01:48:02.676Z,15.00
2022-08-30T01:49:11.627Z,15.04
2022-08-30T01:50:14.081Z,15.01
2022-08-30T01:51:17.728Z,15.05
2022-08-30T01:52:20.079Z,15.06
2022-08-30T01:53:23.184Z,15.06
2022-08-30T01:54:27.273Z,15.04
2022-08-30T01:55:37.569Z,15.06
2022-08-30T01:56:40.040Z,15.08
2022-08-30T01:57:43.163Z,15.07
2022-08-30T01:58:46.299Z,15.03
2022-08-30T01:59:50.310Z,15.07
2022-08-30T02:00:52.486Z,15.06
2022-08-30T02:01:55.917Z,15.07
2022-08-30T02:02:58.164Z,15.06
2022-08-30T02:04:01.399Z,15.05
2022-08-30T02:05:06.404Z,15.04
2022-08-30T02:06:11.860Z,15.04
2022-08-30T02:07:14.016Z,15.05
2022-08-30T02:08:20.010Z,15.04
2022-08-30T02:09:22.056Z,15.03
2022-08-30T02:10:26.763Z,15.03
2022-08-30T02:11:28.967Z,15.02
2022-08-30T02:12:31.952Z,15.01
2022-08-30T02:13:34.036Z,15.00
2022-08-30T02:14:38.521Z,15.00
2022-08-30T02:15:41.558Z,15.00
2022-08-30T02:16:45.228Z,14.99
2022-08-30T02:17:47.674Z,15.00
2022-08-30T02:18:51.596Z,15.00
2022-08-30T02:19:53.790Z,15.01
2022-08-30T02:20:56.842Z,15.01
2022-08-30T02:21:58.913Z,15.00
2022-08-30T02:23:01.957Z,15.02
2022-08-30T02:24:04.533Z,15.03
2022-08-30T02:25:11.255Z,15.03
2022-08-30T02:26:25.080Z,14.99
2022-08-30T02:27:28.456Z,15.02
2022-08-30T02:28:30.620Z,15.01
2022-08-30T02:29:33.740Z,15.05
2022-08-30T02:30:35.924Z,15.05
2022-08-30T02:31:39.060Z,15.05
2022-08-30T02:32:41.649Z,15.04
2022-08-30T02:33:44.681Z,15.03
2022-08-30T02:34:47.322Z,15.04
2022-08-30T02:35:50.391Z,15.04
2022-08-30T02:36:52.451Z,15.03
2022-08-30T02:37:55.576Z,15.01
2022-08-30T02:38:58.070Z,15.03
2022-08-30T02:40:01.175Z,15.04
2022-08-30T02:41:03.646Z,15.04
2022-08-30T02:42:08.345Z,15.04
2022-08-30T02:43:10.551Z,15.04
2022-08-30T02:44:13.689Z,15.04
2022-08-30T02:45:15.947Z,14.98
2022-08-30T02:46:22.491Z,15.04
2022-08-30T02:47:24.566Z,15.05
2022-08-30T02:48:27.789Z,15.05
2022-08-30T02:49:33.680Z,15.05
2022-08-30T02:50:41.624Z,15.03
2022-08-30T02:51:43.697Z,15.05
2022-08-30T02:52:48.168Z,15.03
2022-08-30T02:53:50.514Z,15.02
2022-08-30T02:54:54.158Z,15.01
2022-08-30T02:55:56.232Z,15.03
2022-08-30T02:57:04.736Z,15.04
2022-08-30T02:58:08.802Z,15.04
2022-08-30T02:59:11.879Z,15.04
2022-08-30T03:00:18.280Z,15.04
2022-08-30T03:01:21.519Z,15.03
2022-08-30T03:02:23.671Z,15.04
2022-08-30T03:03:27.055Z,15.00
2022-08-30T03:04:29.410Z,15.04
2022-08-30T03:05:33.500Z,15.03
2022-08-30T03:06:35.788Z,15.03
2022-08-30T03:07:38.835Z,15.05
2022-08-30T03:08:41.703Z,15.01
2022-08-30T03:09:44.696Z,15.04
2022-08-30T03:10:46.731Z,15.03
2022-08-30T03:11:49.754Z,15.02
2022-08-30T03:12:51.757Z,15.03
2022-08-30T03:13:56.366Z,15.02
2022-08-30T03:14:58.958Z,15.03
2022-08-30T03:16:02.411Z,14.99
2022-08-30T03:17:06.777Z,15.03
2022-08-30T03:18:16.050Z,15.02
2022-08-30T03:19:18.461Z,15.02
2022-08-30T03:20:22.768Z,15.01
2022-08-30T03:21:24.854Z,14.99
2022-08-30T03:22:28.051Z,15.00
2022-08-30T03:23:30.157Z,15.01
2022-08-30T03:24:33.799Z,15.00
2022-08-30T03:25:36.119Z,14.98
2022-08-30T03:26:42.010Z,14.98
2022-08-30T03:27:46.417Z,14.99
2022-08-30T03:28:49.427Z,14.98
2022-08-30T03:29:52.820Z,14.98
2022-08-30T03:30:56.655Z,14.98
2022-08-30T03:31:58.852Z,14.98
2022-08-30T03:33:02.380Z,14.98
2022-08-30T03:34:05.880Z,14.97
2022-08-30T03:35:10.127Z,14.99
2022-08-30T03:36:13.355Z,14.98
2022-08-30T03:37:15.363Z,14.95
2022-08-30T03:38:18.492Z,14.97
2022-08-30T03:39:21.804Z,14.97
2022-08-30T03:40:24.947Z,14.97
2022-08-30T03:41:28.236Z,14.97
2022-08-30T03:42:31.439Z,14.97
2022-08-30T03:43:33.628Z,14.98
2022-08-30T03:44:36.925Z,14.97
2022-08-30T03:45:41.846Z,14.96
2022-08-30T03:46:45.213Z,14.96
2022-08-30T03:47:47.263Z,14.97
2022-08-30T03:48:50.405Z,14.98
2022-08-30T03:49:52.453Z,14.98
2022-08-30T03:50:55.525Z,14.96
2022-08-30T03:51:57.689Z,14.93
2022-08-30T03:53:01.065Z,14.97
2022-08-30T03:54:03.132Z,14.96
2022-08-30T03:55:07.288Z,14.96
2022-08-30T03:56:09.547Z,14.97
2022-08-30T03:57:16.005Z,14.96
2022-08-30T03:58:22.605Z,14.96
2022-08-30T03:59:25.902Z,14.92
2022-08-30T04:00:29.146Z,14.96
2022-08-30T04:01:32.655Z,14.84
2022-08-30T04:02:35.829Z,14.94
2022-08-30T04:03:38.236Z,14.96
2022-08-30T04:04:41.576Z,14.96
2022-08-30T04:05:43.789Z,14.96
2022-08-30T04:06:46.877Z,14.94
2022-08-30T04:07:49.011Z,14.95
2022-08-30T04:08:52.527Z,14.95
2022-08-30T04:09:55.098Z,14.93
2022-08-30T04:10:58.342Z,14.93
2022-08-30T04:12:00.397Z,14.90
2022-08-30T04:13:03.444Z,14.91
2022-08-30T04:14:05.497Z,14.90
2022-08-30T04:15:11.204Z,14.91
2022-08-30T04:16:13.384Z,14.90
2022-08-30T04:17:17.842Z,14.89
2022-08-30T04:18:19.856Z,14.88
2022-08-30T04:19:22.921Z,14.87
2022-08-30T04:20:25.007Z,14.86
2022-08-30T04:21:28.326Z,14.86
2022-08-30T04:22:30.433Z,14.84
2022-08-30T04:23:33.564Z,14.86
2022-08-30T04:24:35.618Z,14.86
2022-08-30T04:25:40.554Z,14.87
2022-08-30T04:26:42.799Z,14.87
2022-08-30T04:27:46.998Z,14.88
2022-08-30T04:28:49.065Z,14.88
2022-08-30T04:29:54.065Z,14.85
2022-08-30T04:30:58.371Z,14.86
2022-08-30T04:32:01.933Z,14.92
2022-08-30T04:33:06.467Z,14.90
2022-08-30T04:34:10.865Z,14.93
2022-08-30T04:35:14.334Z,14.92
2022-08-30T04:36:16.739Z,14.93
2022-08-30T04:37:19.769Z,14.94
2022-08-30T04:38:28.615Z,14.95
2022-08-30T04:39:33.436Z,14.96
2022-08-30T04:40:36.033Z,14.95
2022-08-30T04:41:40.913Z,14.97
2022-08-30T04:42:44.107Z,14.98
2022-08-30T04:43:49.495Z,14.99
2022-08-30T04:44:51.584Z,15.00
2022-08-30T04:45:55.725Z,15.00
2022-08-30T04:46:57.843Z,15.01
2022-08-30T04:48:01.777Z,15.02
2022-08-30T04:49:05.336Z,15.03
2022-08-30T04:50:11.921Z,15.02
2022-08-30T04:51:16.282Z,15.03
2022-08-30T04:52:19.312Z,15.03
2022-08-30T04:53:21.405Z,15.03
2022-08-30T04:54:24.421Z,15.04
2022-08-30T04:55:26.583Z,15.04
2022-08-30T04:56:29.729Z,15.03
2022-08-30T04:57:31.882Z,15.03
2022-08-30T04:58:35.038Z,15.03
2022-08-30T04:59:38.464Z,15.03
2022-08-30T05:00:44.077Z,15.03
2022-08-30T05:01:46.277Z,15.03
2022-08-30T05:02:50.086Z,15.01
2022-08-30T05:03:54.241Z,15.02
2022-08-30T05:05:15.850Z,15.00
2022-08-30T05:06:19.698Z,14.99
2022-08-30T05:07:21.768Z,14.99
2022-08-30T05:08:25.078Z,14.99
2022-08-30T05:09:27.289Z,14.98
2022-08-30T05:10:30.481Z,14.97
2022-08-30T05:11:33.109Z,14.98
2022-08-30T05:12:36.234Z,14.99
2022-08-30T05:13:39.656Z,14.99
2022-08-30T05:14:41.727Z,15.00
2022-08-30T05:15:45.417Z,14.99
2022-08-30T05:16:47.464Z,15.00
2022-08-30T05:17:50.605Z,14.99
2022-08-30T05:18:53.964Z,14.99
2022-08-30T05:19:57.438Z,14.99
2022-08-30T05:21:09.818Z,14.99
2022-08-30T05:22:11.898Z,14.98
2022-08-30T05:23:14.956Z,14.99
2022-08-30T05:24:17.021Z,15.02
2022-08-30T05:25:22.089Z,15.02
2022-08-30T05:26:27.546Z,15.02
2022-08-30T05:27:30.591Z,15.02
2022-08-30T05:28:32.647Z,15.00
2022-08-30T05:29:35.736Z,15.04
2022-08-30T05:30:38.294Z,15.05
2022-08-30T05:31:42.107Z,15.05
2022-08-30T05:32:44.197Z,15.07
2022-08-30T05:33:47.551Z,15.07
2022-08-30T05:34:49.633Z,15.09
2022-08-30T05:35:55.898Z,15.09
2022-08-30T05:36:59.467Z,15.11
2022-08-30T05:38:01.518Z,15.13
2022-08-30T05:39:06.039Z,15.14
2022-08-30T05:40:10.695Z,15.15
2022-08-30T05:41:14.735Z,15.17
2022-08-30T05:42:17.589Z,15.18
2022-08-30T05:43:20.541Z,15.20
2022-08-30T05:44:28.905Z,15.21
2022-08-30T05:45:31.947Z,15.23
2022-08-30T05:47:37.647Z,15.25
2022-08-30T05:48:40.713Z,15.28
2022-08-30T05:49:43.799Z,15.30
2022-08-30T05:50:45.809Z,15.32
2022-08-30T05:51:50.222Z,15.31
2022-08-30T05:52:52.322Z,15.33
2022-08-30T05:53:57.900Z,15.34
2022-08-30T05:54:59.961Z,15.34
2022-08-30T05:56:03.460Z,15.36
2022-08-30T05:57:05.738Z,15.37
2022-08-30T05:58:08.862Z,15.38
2022-08-30T05:59:12.249Z,15.40
2022-08-30T06:00:18.949Z,15.40
2022-08-30T06:01:23.701Z,15.41
2022-08-30T06:02:26.792Z,15.43
2022-08-30T06:03:32.456Z,15.45
2022-08-30T06:04:34.500Z,15.48
2022-08-30T06:05:38.687Z,15.48
2022-08-30T06:06:42.991Z,15.51
2022-08-30T06:07:47.337Z,15.55
2022-08-30T06:08:49.792Z,15.58
2022-08-30T06:09:52.766Z,15.60
2022-08-30T06:10:55.087Z,15.65
2022-08-30T06:11:58.674Z,15.68
2022-08-30T06:13:00.731Z,15.72
2022-08-30T06:14:05.750Z,15.75
2022-08-30T06:15:08.741Z,15.79
2022-08-30T06:16:13.144Z,15.84
2022-08-30T06:17:15.287Z,15.87
2022-08-30T06:18:18.504Z,15.92
2022-08-30T06:19:25.702Z,15.96
2022-08-30T06:20:28.851Z,15.99
2022-08-30T06:21:34.185Z,16.03
2022-08-30T06:22:38.703Z,16.07
2022-08-30T06:23:42.165Z,16.10
2022-08-30T06:25:00.376Z,16.13
2022-08-30T06:26:06.146Z,16.17
2022-08-30T06:27:10.767Z,16.22
2022-08-30T06:28:13.983Z,16.27
2022-08-30T06:29:20.196Z,16.33
2022-08-30T06:30:23.234Z,16.38
2022-08-30T06:31:26.713Z,16.39
2022-08-30T06:32:30.660Z,16.45
2022-08-30T06:33:32.812Z,16.49
2022-08-30T06:34:35.837Z,16.52
2022-08-30T06:35:52.137Z,16.56
2022-08-30T06:37:00.050Z,16.59
2022-08-30T06:38:03.541Z,16.64
2022-08-30T06:39:07.622Z,16.67
2022-08-30T06:40:13.357Z,16.71
2022-08-30T06:41:18.455Z,16.77
2022-08-30T06:42:21.936Z,16.82
2022-08-30T06:43:24.317Z,16.87
2022-08-30T06:44:27.397Z,16.93
2022-08-30T06:45:31.067Z,16.97
2022-08-30T06:46:35.528Z,17.03
2022-08-30T06:47:38.679Z,17.06
2022-08-30T06:48:43.061Z,17.09
2022-08-30T06:49:48.241Z,17.13
2022-08-30T06:50:53.726Z,17.16
2022-08-30T06:51:56.766Z,17.19
2022-08-30T06:53:05.622Z,17.20
2022-08-30T06:54:12.149Z,17.25
2022-08-30T06:55:16.608Z,17.27
2022-08-30T06:56:22.230Z,17.29
2022-08-30T06:57:25.431Z,17.33
2022-08-30T06:58:28.233Z,17.37
2022-08-30T06:59:32.467Z,17.40
2022-08-30T07:00:34.629Z,17.42
2022-08-30T07:01:39.703Z,17.45
2022-08-30T07:02:42.711Z,17.47
2022-08-30T07:03:45.904Z,17.49
2022-08-30T07:04:49.026Z,17.53
2022-08-30T07:05:51.306Z,17.53
2022-08-30T07:06:54.369Z,17.59
2022-08-30T07:07:56.432Z,17.61
2022-08-30T07:08:59.385Z,17.65
2022-08-30T07:10:03.816Z,17.69
2022-08-30T07:11:07.537Z,17.73
2022-08-30T07:12:11.561Z,17.75
2022-08-30T07:13:13.954Z,17.80
2022-08-30T07:14:17.116Z,17.83
2022-08-30T07:15:22.915Z,17.85
2022-08-30T07:16:26.724Z,17.89
2022-08-30T07:17:47.474Z,17.92
2022-08-30T07:18:54.608Z,17.95
2022-08-30T07:19:57.793Z,17.97
2022-08-30T07:21:08.131Z,18.00
2022-08-30T07:22:11.160Z,18.02
2022-08-30T07:23:13.287Z,18.05
2022-08-30T07:24:16.366Z,18.08
2022-08-30T07:25:20.946Z,18.10
2022-08-30T07:26:26.436Z,18.11
2022-08-30T07:27:29.663Z,18.15
2022-08-30T07:28:32.044Z,18.17
2022-08-30T07:29:35.260Z,18.19
2022-08-30T07:30:38.463Z,18.21
2022-08-30T07:31:41.590Z,18.24
2022-08-30T07:32:43.843Z,18.25
2022-08-30T07:33:47.456Z,18.29
2022-08-30T07:34:49.553Z,18.32
2022-08-30T07:35:54.920Z,18.38
2022-08-30T07:36:57.974Z,18.45
2022-08-30T07:38:00.087Z,18.50
2022-08-30T07:39:03.426Z,18.54
2022-08-30T07:40:06.122Z,18.60
2022-08-30T07:41:10.793Z,18.64
2022-08-30T07:42:13.734Z,18.67
2022-08-30T07:43:16.981Z,18.70
2022-08-30T07:44:23.153Z,18.74
2022-08-30T07:45:27.202Z,18.77
2022-08-30T07:46:30.464Z,18.79
2022-08-30T07:47:33.056Z,18.83
2022-08-30T07:48:37.093Z,18.87
2022-08-30T07:49:43.007Z,18.90
2022-08-30T07:50:48.342Z,18.88
2022-08-30T07:51:53.563Z,18.97
2022-08-30T07:52:56.960Z,18.99
2022-08-30T07:54:00.591Z,19.01
2022-08-30T07:55:06.873Z,19.01
2022-08-30T07:56:16.494Z,19.02
2022-08-30T07:57:21.286Z,19.01
2022-08-30T07:58:24.497Z,19.01
2022-08-30T07:59:26.888Z,19.01
2022-08-30T08:00:30.173Z,19.00
2022-08-30T08:01:32.431Z,19.00
2022-08-30T08:02:37.254Z,18.98
2022-08-30T08:03:40.902Z,18.98
2022-08-30T08:04:44.010Z,18.98
2022-08-30T08:05:46.502Z,18.99
2022-08-30T08:06:49.924Z,18.98
2022-08-30T08:07:51.983Z,18.98
2022-08-30T08:08:56.421Z,19.01
2022-08-30T08:09:58.852Z,19.03
2022-08-30T08:11:07.896Z,19.06
2022-08-30T08:12:11.754Z,19.10
2022-08-30T08:13:14.856Z,19.13
2022-08-30T08:14:18.026Z,19.17
2022-08-30T08:15:20.178Z,19.20
2022-08-30T08:16:24.807Z,19.24
2022-08-30T08:17:27.619Z,19.27
2022-08-30T08:18:31.778Z,19.31
2022-08-30T08:19:33.994Z,19.38
2022-08-30T08:20:37.003Z,19.41
2022-08-30T08:21:40.190Z,19.42
2022-08-30T08:22:42.461Z,19.51
2022-08-30T08:23:45.528Z,19.55
2022-08-30T08:24:47.536Z,19.59
2022-08-30T08:25:50.615Z,19.61
2022-08-30T08:26:53.415Z,19.63
2022-08-30T08:27:58.396Z,19.65
2022-08-30T08:29:00.459Z,19.67
2022-08-30T08:30:03.738Z,19.68
2022-08-30T08:31:16.399Z,19.72
2022-08-30T08:32:18.669Z,19.72
2022-08-30T08:33:22.014Z,19.72
2022-08-30T08:34:24.125Z,19.73
2022-08-30T08:35:27.279Z,19.71
2022-08-30T08:36:30.545Z,19.68
2022-08-30T08:37:33.965Z,19.66
2022-08-30T08:38:43.063Z,19.65
2022-08-30T08:39:45.113Z,19.64
2022-08-30T08:41:00.835Z,19.66
2022-08-30T08:42:15.727Z,19.66
2022-08-30T08:43:26.520Z,19.64
2022-08-30T08:44:34.983Z,19.66
2022-08-30T08:45:47.891Z,19.66
2022-08-30T08:46:58.071Z,19.65
2022-08-30T08:48:04.187Z,19.66
2022-08-30T08:49:09.477Z,19.66
2022-08-30T08:50:17.292Z,19.66
2022-08-30T08:51:49.346Z,19.66
2022-08-30T08:53:20.626Z,19.65
2022-08-30T08:54:38.174Z,19.65
2022-08-30T08:56:50.423Z,19.68
2022-08-30T08:57:52.822Z,19.68
2022-08-30T08:59:01.542Z,19.69
2022-08-30T09:00:05.489Z,19.72
2022-08-30T09:01:09.665Z,19.76
2022-08-30T09:02:24.464Z,19.80
2022-08-30T09:03:43.163Z,19.82
2022-08-30T09:04:50.719Z,19.86
2022-08-30T09:05:59.341Z,19.91
2022-08-30T09:07:06.670Z,19.94
2022-08-30T09:08:15.645Z,19.97
2022-08-30T09:09:22.881Z,19.99
2022-08-30T09:10:46.945Z,20.00
2022-08-30T09:11:50.209Z,19.98
2022-08-30T09:12:55.710Z,19.98
2022-08-30T09:14:04.250Z,19.98
2022-08-30T09:15:13.354Z,19.98
2022-08-30T09:16:54.740Z,19.98
2022-08-30T09:18:01.395Z,19.98
2022-08-30T09:19:05.350Z,19.97
2022-08-30T09:20:10.803Z,19.97
2022-08-30T09:21:15.077Z,19.96
2022-08-30T09:22:29.866Z,19.95
2022-08-30T09:23:32.439Z,19.94
2022-08-30T09:24:43.431Z,19.91
2022-08-30T09:25:52.668Z,19.85
2022-08-30T09:26:54.754Z,19.81
2022-08-30T09:28:12.059Z,19.74
2022-08-30T09:29:19.827Z,19.68
2022-08-30T09:30:25.530Z,19.62
2022-08-30T09:31:31.371Z,19.57
2022-08-30T09:32:38.878Z,19.54
2022-08-30T09:33:41.919Z,19.51
2022-08-30T09:34:44.336Z,19.50
2022-08-30T09:35:52.082Z,19.49
2022-08-30T09:36:57.278Z,19.51
2022-08-30T09:38:05.669Z,19.52
2022-08-30T09:39:18.015Z,19.56
2022-08-30T09:40:28.860Z,19.60
2022-08-30T09:41:41.417Z,19.65
2022-08-30T09:43:00.687Z,19.68
2022-08-30T09:44:08.153Z,19.74
2022-08-30T09:45:29.060Z,19.79
2022-08-30T09:46:31.036Z,19.83
2022-08-30T09:47:34.458Z,19.87
2022-08-30T09:48:40.752Z,19.90
2022-08-30T09:49:44.452Z,19.92
2022-08-30T09:50:57.273Z,19.97
2022-08-30T09:52:14.601Z,20.01
2022-08-30T09:53:24.222Z,20.05
2022-08-30T09:54:34.444Z,20.10
2022-08-30T09:56:04.976Z,20.15
2022-08-30T09:57:16.534Z,20.19
2022-08-30T09:58:29.966Z,20.21
2022-08-30T09:59:41.618Z,20.25
2022-08-30T10:00:57.901Z,20.27
2022-08-30T10:02:04.645Z,20.30
2022-08-30T10:03:35.838Z,20.32
2022-08-30T10:04:52.000Z,20.35
2022-08-30T10:06:02.733Z,20.38
2022-08-30T10:07:14.742Z,20.40
2022-08-30T10:08:21.141Z,20.43
2022-08-30T10:09:37.976Z,20.47
2022-08-30T10:10:47.791Z,20.53
2022-08-30T10:11:57.752Z,20.59
2022-08-30T10:13:11.262Z,20.65
2022-08-30T10:14:40.174Z,20.72
2022-08-30T10:15:50.295Z,20.77
2022-08-30T10:17:01.063Z,20.81
2022-08-30T10:18:13.978Z,20.85
2022-08-30T10:19:33.493Z,20.87
2022-08-30T10:20:43.973Z,20.97
2022-08-30T10:21:54.127Z,21.06
2022-08-30T10:23:02.215Z,21.17
2022-08-30T10:24:11.051Z,21.25
2022-08-30T10:25:19.078Z,21.29
2022-08-30T10:26:31.329Z,21.34
2022-08-30T10:27:42.458Z,21.34
2022-08-30T10:28:51.272Z,21.31
2022-08-30T10:30:00.766Z,21.27
2022-08-30T10:31:12.069Z,21.21
2022-08-30T10:32:20.718Z,21.11
2022-08-30T10:33:27.355Z,21.06
2022-08-30T10:34:40.107Z,20.99
2022-08-30T10:35:47.703Z,20.94
2022-08-30T10:36:55.240Z,20.89
2022-08-30T10:38:04.456Z,20.85
2022-08-30T10:39:09.551Z,20.81
2022-08-30T10:40:41.663Z,20.73
2022-08-30T10:41:50.693Z,20.70
2022-08-30T10:42:56.380Z,20.67
2022-08-30T10:44:04.323Z,20.64
2022-08-30T10:45:14.412Z,20.61
2022-08-30T10:46:26.607Z,20.60
2022-08-30T10:47:36.823Z,20.59
2022-08-30T10:48:44.369Z,20.56
2022-08-30T10:49:54.495Z,20.54
2022-08-30T10:51:02.633Z,20.54
2022-08-30T10:52:20.009Z,20.52
2022-08-30T10:53:30.494Z,20.54
2022-08-30T10:54:39.679Z,20.53
2022-08-30T10:55:50.373Z,20.52
2022-08-30T10:56:54.625Z,20.52
2022-08-30T10:58:01.557Z,20.51
2022-08-30T10:59:05.652Z,20.51
2022-08-30T11:00:13.914Z,20.49
2022-08-30T11:01:28.894Z,20.46
2022-08-30T11:03:06.811Z,20.46
2022-08-30T11:04:49.408Z,20.46
2022-08-30T11:06:06.032Z,20.46
2022-08-30T11:07:22.038Z,20.46
2022-08-30T11:08:48.810Z,20.45
2022-08-30T11:10:08.813Z,20.45
2022-08-30T11:11:19.236Z,20.45
2022-08-30T11:12:37.799Z,20.46
2022-08-30T11:13:42.651Z,20.43
2022-08-30T11:14:45.840Z,20.42
2022-08-30T11:15:59.770Z,20.38
2022-08-30T11:17:21.943Z,20.35
2022-08-30T11:18:30.120Z,20.32
2022-08-30T11:19:38.017Z,20.32
2022-08-30T11:20:44.058Z,20.31
2022-08-30T11:21:48.311Z,20.33
2022-08-30T11:23:23.539Z,20.32
2022-08-30T11:24:27.502Z,20.35
2022-08-30T11:25:57.642Z,20.33
2022-08-30T11:27:03.455Z,20.31
2022-08-30T11:28:09.171Z,20.30
2022-08-30T11:29:32.728Z,20.29
2022-08-30T11:30:52.602Z,20.27
2022-08-30T11:31:56.572Z,20.28
2022-08-30T11:33:07.883Z,20.30
2022-08-30T11:34:12.917Z,20.35
2022-08-30T11:35:37.521Z,20.46
2022-08-30T11:37:09.560Z,20.60
2022-08-30T11:38:17.540Z,20.67
2022-08-30T11:39:52.226Z,20.74
2022-08-30T11:41:09.617Z,20.75
2022-08-30T11:42:24.415Z,20.74
2022-08-30T11:45:36.193Z,20.68
2022-08-30T11:46:41.664Z,20.71
2022-08-30T11:47:46.852Z,20.77
2022-08-30T11:48:55.404Z,20.86
2022-08-30T11:50:09.877Z,20.97
2022-08-30T11:51:27.048Z,21.04
2022-08-30T11:52:41.357Z,21.11
2022-08-30T11:53:52.369Z,21.17
2022-08-30T11:55:12.944Z,21.21
2022-08-30T11:56:22.840Z,21.25
2022-08-30T11:57:34.569Z,21.28
2022-08-30T11:58:49.084Z,21.33
2022-08-30T12:00:06.329Z,21.35
2022-08-30T12:01:50.728Z,21.46
2022-08-30T12:02:58.478Z,21.50
2022-08-30T12:04:07.872Z,21.52
2022-08-30T12:05:51.874Z,21.51
2022-08-30T12:06:59.833Z,21.52
2022-08-30T12:08:04.391Z,21.45
2022-08-30T12:09:09.402Z,21.44
2022-08-30T12:10:22.938Z,21.34
2022-08-30T12:12:02.422Z,21.25
2022-08-30T12:13:06.302Z,21.18
2022-08-30T12:14:28.667Z,21.12
2022-08-30T12:15:58.536Z,21.04
2022-08-30T12:17:20.772Z,20.99
2022-08-30T12:18:43.205Z,20.91
2022-08-30T12:19:50.658Z,20.86
2022-08-30T12:20:55.222Z,20.82
2022-08-30T12:22:01.273Z,20.77
2022-08-30T12:23:19.165Z,20.75
2022-08-30T12:24:26.976Z,20.72
2022-08-30T12:25:31.688Z,20.71
2022-08-30T12:26:37.677Z,20.69
2022-08-30T12:27:40.103Z,20.67
2022-08-30T12:28:45.787Z,20.69
2022-08-30T12:29:51.729Z,20.75
2022-08-30T12:30:54.897Z,20.83
2022-08-30T12:32:01.202Z,20.92
2022-08-30T12:33:06.466Z,21.02
2022-08-30T12:34:10.387Z,21.12
2022-08-30T12:35:23.320Z,21.26
2022-08-30T12:36:36.399Z,21.40
2022-08-30T12:37:43.810Z,21.51
2022-08-30T12:38:51.431Z,21.66
2022-08-30T12:40:03.137Z,21.83
2022-08-30T12:41:06.502Z,21.98
2022-08-30T12:42:18.012Z,22.15
2022-08-30T12:43:26.472Z,22.32
2022-08-30T12:44:29.855Z,22.46
2022-08-30T12:45:37.546Z,22.60
2022-08-30T12:46:43.715Z,22.74
2022-08-30T12:47:49.077Z,22.85
2022-08-30T12:48:52.534Z,22.94
2022-08-30T12:49:56.332Z,23.06
2022-08-30T12:51:01.354Z,23.14
2022-08-30T12:52:18.569Z,23.23
2022-08-30T12:53:27.838Z,23.30
2022-08-30T12:54:32.374Z,23.36
2022-08-30T12:55:49.320Z,23.42
2022-08-30T12:56:57.125Z,23.47
2022-08-30T12:58:03.963Z,23.47
2022-08-30T12:59:06.327Z,23.50
2022-08-30T13:00:12.102Z,23.49
2022-08-30T13:01:18.932Z,23.48
2022-08-30T13:02:26.986Z,23.52
2022-08-30T13:03:35.108Z,23.58
2022-08-30T13:04:37.382Z,23.70
2022-08-30T13:05:47.787Z,23.85
2022-08-30T13:06:54.711Z,23.96
2022-08-30T13:08:11.631Z,23.97
2022-08-30T13:09:26.970Z,23.95
2022-08-30T13:10:30.878Z,23.90
2022-08-30T13:11:33.101Z,23.90
2022-08-30T13:12:38.385Z,23.92
2022-08-30T13:13:44.339Z,24.04
2022-08-30T13:14:48.044Z,24.19
2022-08-30T13:15:50.076Z,24.29
2022-08-30T13:17:07.269Z,24.39
2022-08-30T13:18:21.614Z,24.37
2022-08-30T13:19:35.320Z,24.34
2022-08-30T13:20:38.154Z,24.38
2022-08-30T13:21:52.202Z,24.46
2022-08-30T13:23:05.141Z,24.61
2022-08-30T13:24:08.179Z,24.71
2022-08-30T13:25:11.281Z,24.81
2022-08-30T13:26:23.236Z,24.90
2022-08-30T13:27:27.882Z,25.03
2022-08-30T13:28:29.965Z,25.14
2022-08-30T13:29:33.017Z,25.20
2022-08-30T13:30:35.588Z,25.17
2022-08-30T13:31:39.747Z,25.08
2022-08-30T13:32:47.069Z,24.92
2022-08-30T13:33:53.350Z,24.69
2022-08-30T13:35:03.496Z,24.49
2022-08-30T13:36:08.104Z,24.31
2022-08-30T13:38:44.282Z,24.00
2022-08-30T13:39:46.521Z,23.90
2022-08-30T13:40:50.108Z,23.82
2022-08-30T13:41:53.101Z,23.75
2022-08-30T13:43:00.040Z,23.68
2022-08-30T13:44:13.585Z,23.61
2022-08-30T13:46:54.229Z,23.44
2022-08-30T13:47:58.739Z,23.36
2022-08-30T13:49:05.589Z,23.26
2022-08-30T13:50:09.775Z,23.19
2022-08-30T13:51:12.159Z,23.12
2022-08-30T13:52:21.262Z,23.08
2022-08-30T13:54:50.137Z,22.99
2022-08-30T13:55:52.648Z,22.98
2022-08-30T13:56:56.518Z,22.98
2022-08-30T13:57:59.525Z,22.96
2022-08-30T13:59:03.137Z,22.93
2022-08-30T14:00:12.686Z,22.90
2022-08-30T14:01:18.861Z,22.87
2022-08-30T14:02:21.117Z,22.83
2022-08-30T14:03:24.272Z,22.79
2022-08-30T14:04:26.798Z,22.78
2022-08-30T14:05:52.702Z,22.73
2022-08-30T14:07:14.055Z,22.70
2022-08-30T14:09:54.282Z,22.64
2022-08-30T14:11:19.447Z,22.64
2022-08-30T14:12:52.703Z,22.68
2022-08-30T14:15:11.882Z,22.72
2022-08-30T14:16:29.988Z,22.73
2022-08-30T14:17:35.593Z,22.72
2022-08-30T14:18:38.558Z,22.71
2022-08-30T14:19:43.561Z,22.71
2022-08-30T14:20:45.886Z,22.69
2022-08-30T14:21:49.413Z,22.68
2022-08-30T14:22:52.003Z,22.67
2022-08-30T14:23:56.494Z,22.69
2022-08-30T14:25:01.439Z,22.68
2022-08-30T14:26:11.612Z,22.70
2022-08-30T14:27:16.135Z,22.70